Time;durP1;ratioP1;P1;durP2;ratioP2;P2;SDS_P1;SDS_P2;PMS_P1;PMS_P2;Temp;Humidity;BMP_temperature;BMP_pressure;BME280_temperature;BME280_humidity;BME280_pressure;Samples;Min_cycle;Max_cycle;Signal;HPM_P1;HPM_P2
2023/05/06 01:17:47;;;;;;;6.78;2.10;;;;;;;;;;6175790;23;20177;-81
2023/05/06 01:20:43;;;;;;;;;;;;;;;;;;;;;
2023/05/06 01:24:10;;;;;;;;;;;;;;;;;;;;;
2023/05/06 02:05:38;;;;;;;;;;;;;;;;;;;;;
2023/05/06 02:18:50;;;;;;;;;;;;;;;;;;;;;
2023/05/06 02:27:44;;;;;;;;;;;;;;;;;;;;;
2023/05/06 02:30:40;;;;;;;;;;;;;;;;;;;;;
2023/05/06 02:33:10;;;;;;;7.28;2.63;;;;;;;;;;6152451;23;20156;-82
2023/05/06 02:35:51;;;;;;;5.72;2.47;;;;;;;;;;6152213;23;20036;-82
2023/05/06 02:38:55;;;;;;;6.80;2.47;;;;;;;;;;6126307;23;20026;-82
2023/05/06 02:44:40;;;;;;;5.43;1.77;;;;;;;;;;6152110;23;20077;-81
2023/05/06 02:56:23;;;;;;;;;;;;;;;;;;;;;
2023/05/06 02:59:21;;;;;;;;;;;;;;;;;;;;;
2023/05/06 03:05:03;;;;;;;7.47;2.30;;;;;;;;;;6142545;23;20075;-82
2023/05/06 03:11:23;;;;;;;;;;;;;;;;;;;;;
2023/05/06 03:17:22;;;;;;;9.32;3.22;;;;;;;;;;6090234;23;20434;-82
2023/05/06 03:20:12;;;;;;;6.93;2.67;;;;;;;;;;6088314;23;20014;-82
2023/05/06 05:14:35;;;;;;;8.18;2.80;;;;;;;;;;6180684;23;20076;-83
2023/05/06 05:17:02;;;;;;;7.22;2.70;;;;;;;;;;6181007;23;20088;-87
2023/05/06 05:19:27;;;;;;;7.18;2.90;;;;;;;;;;6155045;23;20036;-86
2023/05/06 05:21:53;;;;;;;5.10;2.40;;;;;;;;;;6154451;23;20009;-85
2023/05/06 05:24:20;;;;;;;6.18;2.67;;;;;;;;;;6154234;23;20013;-85
2023/05/06 05:26:46;;;;;;;8.65;2.65;;;;;;;;;;6180696;23;20072;-85
2023/05/06 05:29:12;;;;;;;5.20;2.35;;;;;;;;;;6154345;23;20052;-84
2023/05/06 05:31:38;;;;;;;9.68;2.63;;;;;;;;;;6181232;23;20009;-85
2023/05/06 05:34:04;;;;;;;4.68;2.42;;;;;;;;;;6153708;23;20432;-82
2023/05/06 05:36:30;;;;;;;7.97;2.05;;;;;;;;;;6154291;23;20013;-83
2023/05/06 05:38:56;;;;;;;4.72;2.15;;;;;;;;;;6154156;23;20072;-84
2023/05/06 05:41:24;;;;;;;7.25;1.95;;;;;;;;;;6180943;23;20009;-88
2023/05/06 05:43:50;;;;;;;4.03;1.52;;;;;;;;;;6154607;23;20664;-84
2023/05/06 05:46:16;;;;;;;6.78;2.20;;;;;;;;;;6180262;23;20009;-84
2023/05/06 05:48:42;;;;;;;5.63;1.77;;;;;;;;;;6180230;23;20005;-83
2023/05/06 05:51:08;;;;;;;4.80;2.53;;;;;;;;;;6154860;23;20589;-83
2023/05/06 05:53:34;;;;;;;6.75;2.40;;;;;;;;;;6178220;23;20009;-85
2023/05/06 05:56:00;;;;;;;5.90;2.00;;;;;;;;;;6154459;23;20013;-84
2023/05/06 05:58:27;;;;;;;5.20;2.60;;;;;;;;;;6153655;23;20112;-84
2023/05/06 06:04:15;;;;;;;6.90;1.77;;;;;;;;;;6182507;23;20015;-86
2023/05/06 06:06:41;;;;;;;6.75;1.95;;;;;;;;;;6156818;23;20021;-86
2023/05/06 06:09:09;;;;;;;3.35;1.33;;;;;;;;;;6156312;23;20013;-85
2023/05/06 06:11:47;;;;;;;8.40;1.77;;;;;;;;;;6156230;23;20013;-86
2023/05/06 06:20:38;;;;;;;5.43;1.57;;;;;;;;;;6106106;23;20013;-84
2023/05/06 06:23:14;;;;;;;;;;;;;;;;;;;;;
2023/05/06 06:26:12;;;;;;;12.70;2.47;;;;;;;;;;6168570;23;20068;-85
2023/05/06 06:29:13;;;;;;;;;;;;;;;;;;;;;
2023/05/06 06:31:49;;;;;;;9.75;2.20;;;;;;;;;;6115325;23;20759;-86
2023/05/06 06:34:15;;;;;;;8.02;1.98;;;;;;;;;;6095155;23;20057;-84
2023/05/06 06:36:43;;;;;;;6.13;1.50;;;;;;;;;;6095745;23;20018;-83
2023/05/06 06:39:10;;;;;;;4.40;1.70;;;;;;;;;;6119815;23;20049;-84
2023/05/06 06:41:36;;;;;;;4.28;1.15;;;;;;;;;;6120081;23;20178;-85
2023/05/06 06:44:02;;;;;;;9.32;1.85;;;;;;;;;;6120050;23;20081;-86
2023/05/06 06:46:28;;;;;;;5.43;1.95;;;;;;;;;;6095383;23;20014;-86
2023/05/06 06:48:54;;;;;;;5.20;2.03;;;;;;;;;;6120035;23;20014;-85
2023/05/06 06:51:20;;;;;;;6.22;2.20;;;;;;;;;;6095442;23;20518;-83
2023/05/06 06:53:47;;;;;;;7.47;1.35;;;;;;;;;;6120283;23;20014;-85
2023/05/06 06:56:14;;;;;;;5.85;1.20;;;;;;;;;;6121058;23;20018;-86
2023/05/06 06:58:41;;;;;;;5.53;1.27;;;;;;;;;;6125665;23;20032;-84
2023/05/06 07:01:07;;;;;;;5.22;1.10;;;;;;;;;;6154970;23;20044;-84
2023/05/06 07:03:33;;;;;;;4.32;1.30;;;;;;;;;;6183205;23;20024;-83
2023/05/06 07:05:59;;;;;;;7.30;1.23;;;;;;;;;;6155752;23;20769;-84
2023/05/06 07:08:25;;;;;;;3.70;1.13;;;;;;;;;;6182658;23;20675;-84
2023/05/06 07:10:51;;;;;;;3.75;1.52;;;;;;;;;;6157194;23;20012;-84
2023/05/06 07:13:19;;;;;;;4.15;1.30;;;;;;;;;;6183540;23;20019;-84
2023/05/06 07:15:45;;;;;;;2.83;1.20;;;;;;;;;;6184368;23;20016;-84
2023/05/06 07:18:11;;;;;;;3.95;1.55;;;;;;;;;;6157845;23;20723;-85
2023/05/06 07:20:37;;;;;;;3.30;1.30;;;;;;;;;;6157198;23;20312;-85
2023/05/06 07:23:03;;;;;;;4.78;1.48;;;;;;;;;;6182723;23;20063;-85
2023/05/06 07:25:30;;;;;;;8.23;1.30;;;;;;;;;;6155617;23;20013;-84
2023/05/06 07:27:56;;;;;;;5.88;1.42;;;;;;;;;;6182430;23;20016;-85
2023/05/06 07:30:22;;;;;;;4.85;1.10;;;;;;;;;;6156279;23;20092;-85
2023/05/06 07:32:48;;;;;;;3.40;1.08;;;;;;;;;;6183023;23;20048;-85
2023/05/06 07:35:14;;;;;;;5.57;1.33;;;;;;;;;;6156013;23;20063;-84
2023/05/06 07:37:40;;;;;;;6.38;1.45;;;;;;;;;;6156160;23;20028;-86
2023/05/06 07:40:06;;;;;;;6.50;1.35;;;;;;;;;;6182084;23;20488;-86
2023/05/06 07:42:32;;;;;;;3.28;1.00;;;;;;;;;;6156378;23;20672;-85
2023/05/06 07:44:58;;;;;;;2.90;1.33;;;;;;;;;;6155901;23;20016;-85
2023/05/06 07:47:31;;;;;;;3.35;1.15;;;;;;;;;;6182086;23;20139;-86
2023/05/06 07:49:58;;;;;;;3.05;1.35;;;;;;;;;;6155410;23;20112;-86
2023/05/06 07:52:24;;;;;;;5.93;1.38;;;;;;;;;;6155721;23;20230;-86
2023/05/06 07:54:50;;;;;;;4.80;1.30;;;;;;;;;;6155879;23;20095;-86
2023/05/06 07:57:16;;;;;;;3.38;1.10;;;;;;;;;;6155750;23;20055;-86
2023/05/06 07:59:43;;;;;;;3.90;1.15;;;;;;;;;;6156197;23;20013;-86
2023/05/06 08:02:09;;;;;;;3.65;1.20;;;;;;;;;;6155159;23;20086;-87
2023/05/06 08:04:35;;;;;;;3.25;1.10;;;;;;;;;;6155483;23;20013;-87
2023/05/06 08:07:01;;;;;;;3.92;1.17;;;;;;;;;;6155171;23;20012;-86
2023/05/06 08:09:27;;;;;;;5.82;1.10;;;;;;;;;;6155287;23;20052;-85
2023/05/06 08:11:53;;;;;;;3.45;1.23;;;;;;;;;;6155129;23;20017;-86
2023/05/06 08:14:19;;;;;;;3.20;1.33;;;;;;;;;;6155629;23;20357;-86
2023/05/06 08:16:45;;;;;;;3.92;1.17;;;;;;;;;;6154868;23;20075;-86
2023/05/06 08:19:11;;;;;;;4.55;1.13;;;;;;;;;;6155237;23;20009;-86
2023/05/06 08:21:37;;;;;;;4.97;1.10;;;;;;;;;;6154905;23;20463;-87
2023/05/06 08:24:03;;;;;;;3.17;1.10;;;;;;;;;;6155471;23;20008;-86
2023/05/06 08:26:29;;;;;;;3.60;1.48;;;;;;;;;;6154789;23;20023;-87
2023/05/06 08:28:56;;;;;;;3.55;1.20;;;;;;;;;;6155638;23;20002;-86
2023/05/06 08:31:22;;;;;;;4.13;1.02;;;;;;;;;;6154506;23;20009;-87
2023/05/06 08:33:48;;;;;;;4.78;0.93;;;;;;;;;;6155202;23;20111;-86
2023/05/06 08:36:14;;;;;;;4.35;1.10;;;;;;;;;;6155205;23;20040;-87
2023/05/06 08:38:41;;;;;;;7.55;1.50;;;;;;;;;;6154295;23;20572;-85
2023/05/06 08:41:08;;;;;;;6.28;1.30;;;;;;;;;;6155602;23;20017;-87
2023/05/06 08:43:40;;;;;;;3.50;1.17;;;;;;;;;;6154820;23;20080;-87
2023/05/06 08:46:06;;;;;;;4.10;1.05;;;;;;;;;;6155103;23;20056;-87
2023/05/06 08:48:32;;;;;;;6.50;1.00;;;;;;;;;;6155092;23;20063;-86
2023/05/06 08:51:00;;;;;;;2.35;0.90;;;;;;;;;;6154196;23;20009;-87
2023/05/06 08:53:27;;;;;;;4.00;0.98;;;;;;;;;;6155106;23;20008;-87
2023/05/06 08:55:53;;;;;;;4.25;1.10;;;;;;;;;;6154283;23;20008;-87
2023/05/06 08:58:20;;;;;;;5.60;1.30;;;;;;;;;;6154759;23;20943;-87
2023/05/06 09:00:47;;;;;;;4.00;1.30;;;;;;;;;;6154133;23;20005;-87
2023/05/06 09:03:13;;;;;;;5.22;1.25;;;;;;;;;;6154612;23;20016;-86
2023/05/06 09:05:42;;;;;;;5.00;1.13;;;;;;;;;;6154134;23;20036;-86
2023/05/06 09:08:08;;;;;;;6.57;1.42;;;;;;;;;;6154947;23;20051;-87
2023/05/06 09:10:42;;;;;;;4.15;1.48;;;;;;;;;;6154231;23;20009;-87
2023/05/06 09:13:10;;;;;;;7.65;1.30;;;;;;;;;;6155147;23;20087;-87
2023/05/06 09:15:42;;;;;;;3.63;0.93;;;;;;;;;;6153809;23;20024;-86
2023/05/06 09:18:08;;;;;;;2.72;1.27;;;;;;;;;;6154819;23;20078;-87
2023/05/06 09:20:35;;;;;;;2.83;1.05;;;;;;;;;;6154532;23;20005;-86
2023/05/06 09:23:02;;;;;;;6.25;1.23;;;;;;;;;;6154867;23;20019;-87
2023/05/06 09:25:28;;;;;;;6.25;1.38;;;;;;;;;;6154141;23;20033;-87
2023/05/06 09:28:08;;;;;;;4.65;1.30;;;;;;;;;;6154770;23;20017;-87
2023/05/06 09:30:39;;;;;;;5.35;1.30;;;;;;;;;;6154748;23;20012;-87
2023/05/06 09:33:05;;;;;;;3.90;1.05;;;;;;;;;;6155434;23;20524;-86
2023/05/06 09:36:01;;;;;;;9.02;1.48;;;;;;;;;;6154603;22;20366;-87
2023/05/06 09:38:56;;;;;;;;;;;;;;;;;;;;;
2023/05/06 09:44:56;;;;;;;;;;;;;;;;;;;;;
2023/05/06 09:47:34;;;;;;;3.72;1.30;;;;;;;;;;6033277;23;20118;-87
2023/05/06 09:50:41;;;;;;;6.70;1.77;;;;;;;;;;6153594;23;20393;-86
2023/05/06 09:53:21;;;;;;;;;;;;;;;;;;;;;
2023/05/06 09:56:01;;;;;;;;;;;;;;;;;;;;;
2023/05/06 09:59:18;;;;;;;;;;;;;;;;;;;;;
2023/05/06 10:04:50;;;;;;;;;;;;;;;;;;;;;
2023/05/06 10:13:59;;;;;;;4.57;1.40;;;;;;;;;;6031269;23;20022;-87
2023/05/06 10:16:40;;;;;;;3.80;1.27;;;;;;;;;;6030508;23;20023;-87
2023/05/06 10:19:11;;;;;;;5.82;1.30;;;;;;;;;;6150221;23;20743;-86
2023/05/06 10:24:24;;;;;;;12.63;2.22;;;;;;;;;;6121125;23;20025;-85
2023/05/06 10:26:52;;;;;;;8.38;2.47;;;;;;;;;;6059316;23;20107;-86
2023/05/06 10:33:02;;;;;;;7.10;2.25;;;;;;;;;;5973988;23;20322;-84
2023/05/06 10:35:48;;;;;;;4.47;2.08;;;;;;;;;;5830501;24;20030;-88
2023/05/06 10:38:35;;;;;;;8.65;3.75;;;;;;;;;;5837285;24;20949;-87
2023/05/06 10:59:54;;;;;;;3.55;1.20;;;;;;;;;;6152262;23;20054;-85
2023/05/06 11:02:20;;;;;;;8.15;3.75;;;;;;;;;;6126152;23;20088;-84
2023/05/06 11:04:50;;;;;;;7.78;3.90;;;;;;;;;;6151620;23;20118;-85
2023/05/06 11:07:21;;;;;;;6.93;1.58;;;;;;;;;;6126278;23;20021;-88
2023/05/06 11:09:58;;;;;;;4.28;1.35;;;;;;;;;;6125652;23;20009;-86
2023/05/06 11:15:37;;;;;;;3.80;0.95;;;;;;;;;;6150943;23;20661;-91
2023/05/06 11:18:22;;;;;;;2.80;1.00;;;;;;;;;;6123715;23;20017;-89
2023/05/06 11:20:49;;;;;;;6.30;1.23;;;;;;;;;;6126046;23;20089;-86
2023/05/06 11:23:15;;;;;;;5.03;0.93;;;;;;;;;;6126824;23;20014;-87
2023/05/06 11:25:42;;;;;;;5.15;1.00;;;;;;;;;;6125884;23;20092;-88
2023/05/06 11:28:10;;;;;;;5.68;1.30;;;;;;;;;;6127017;23;20017;-87
2023/05/06 11:30:44;;;;;;;5.82;1.17;;;;;;;;;;6153124;23;20097;-89
2023/05/06 11:33:14;;;;;;;4.18;0.98;;;;;;;;;;6128357;23;20040;-89
2023/05/06 11:35:40;;;;;;;4.05;1.00;;;;;;;;;;6125407;23;20013;-88
2023/05/06 11:38:06;;;;;;;3.17;0.95;;;;;;;;;;6123958;23;20165;-87
2023/05/06 11:40:41;;;;;;;9.27;1.20;;;;;;;;;;6124810;23;20016;-89
2023/05/06 11:43:14;;;;;;;5.40;1.20;;;;;;;;;;6125524;23;20009;-89
2023/05/06 11:45:49;;;;;;;4.00;1.13;;;;;;;;;;6124795;23;20014;-88
2023/05/06 11:48:16;;;;;;;4.93;1.95;;;;;;;;;;6126733;23;20032;-89
2023/05/06 11:50:46;;;;;;;3.30;1.20;;;;;;;;;;6125257;23;20018;-90
2023/05/06 11:53:14;;;;;;;2.80;1.13;;;;;;;;;;6126177;23;20013;-88
2023/05/06 12:11:46;;;;;;;;;;;;;;;;;;;;;
2023/05/06 12:25:34;;;;;;;;;;;;;;;;;;;;;
2023/05/06 12:28:26;;;;;;;5.10;1.73;;;;;;;;;;6182283;23;20068;-87
2023/05/06 12:31:20;;;;;;;4.93;1.27;;;;;;;;;;6121531;23;20024;-84
2023/05/06 14:58:29;;;;;;;7.57;1.45;;;;;;;;;;6002920;23;20522;-85
2023/05/06 15:10:35;;;;;;;;;;;;;;;;;;;;;
2023/05/06 15:16:10;;;;;;;4.07;1.23;;;;;;;;;;6180701;23;20360;-85
2023/05/06 15:21:54;;;;;;;3.85;0.88;;;;;;;;;;6181845;23;20844;-83
2023/05/06 15:24:52;;;;;;;3.55;0.85;;;;;;;;;;6155298;23;20013;-84
2023/05/06 15:27:20;;;;;;;5.78;1.20;;;;;;;;;;6155400;23;20021;-84
2023/05/06 15:39:00;;;;;;;3.50;0.85;;;;;;;;;;6178329;23;20095;-83
2023/05/06 15:41:40;;;;;;;;;;;;;;;;;;;;;
2023/05/06 15:44:07;;;;;;;5.27;0.90;;;;;;;;;;6182889;23;20087;-84
2023/05/06 15:46:33;;;;;;;2.47;0.73;;;;;;;;;;6180890;23;20009;-85
2023/05/06 15:48:59;;;;;;;3.58;0.90;;;;;;;;;;6182251;23;20041;-84
2023/05/06 15:51:41;;;;;;;5.47;1.20;;;;;;;;;;6154718;23;20437;-85
2023/05/06 15:54:07;;;;;;;4.97;1.08;;;;;;;;;;6155108;23;20096;-85
2023/05/06 16:16:32;;;;;;;6.00;1.08;;;;;;;;;;6149950;23;20780;-87
2023/05/06 16:18:58;;;;;;;4.28;1.08;;;;;;;;;;6125458;23;20080;-88
2023/05/06 16:21:44;;;;;;;3.80;1.00;;;;;;;;;;6125560;23;20487;-85
2023/05/06 16:24:21;;;;;;;2.83;0.98;;;;;;;;;;6124735;23;20096;-85
2023/05/06 16:26:47;;;;;;;3.38;0.88;;;;;;;;;;6124344;23;20006;-86
2023/05/06 16:29:19;;;;;;;3.90;1.15;;;;;;;;;;6125450;23;20019;-85
2023/05/06 16:32:07;;;;;;;;;;;;;;;;;;;;;
2023/05/06 16:35:09;;;;;;;3.92;0.90;;;;;;;;;;6151730;23;20088;-86
2023/05/06 16:37:43;;;;;;;7.07;1.20;;;;;;;;;;6137241;23;20302;-86
2023/05/06 16:40:49;;;;;;;;;;;;;;;;;;;;;
2023/05/06 16:59:09;;;;;;;3.25;1.00;;;;;;;;;;6059984;23;20142;-85
2023/05/06 17:04:40;;;;;;;5.55;1.10;;;;;;;;;;6089632;23;20021;-88
2023/05/06 17:07:08;;;;;;;3.63;1.20;;;;;;;;;;6116794;23;20509;-86
2023/05/06 17:09:34;;;;;;;6.25;1.33;;;;;;;;;;6118054;23;20018;-87
2023/05/06 17:12:01;;;;;;;3.38;1.23;;;;;;;;;;6118141;23;20029;-86
2023/05/06 17:14:27;;;;;;;4.90;1.30;;;;;;;;;;6173628;23;20016;-87
2023/05/06 17:16:53;;;;;;;4.10;1.10;;;;;;;;;;6180807;23;20053;-87
2023/05/06 17:19:19;;;;;;;5.50;1.42;;;;;;;;;;6154103;23;20017;-86
2023/05/06 17:21:45;;;;;;;3.78;1.20;;;;;;;;;;6181196;23;20104;-87
2023/05/06 17:24:11;;;;;;;2.92;1.40;;;;;;;;;;6154282;23;20088;-87
2023/05/06 17:26:39;;;;;;;4.65;1.35;;;;;;;;;;6154563;23;20306;-87
2023/05/06 17:29:05;;;;;;;4.50;1.20;;;;;;;;;;6179785;23;20020;-86
2023/05/06 17:31:31;;;;;;;4.60;1.17;;;;;;;;;;6154324;23;20023;-86
2023/05/06 17:33:57;;;;;;;4.07;1.60;;;;;;;;;;6153814;23;20391;-86
2023/05/06 17:36:23;;;;;;;2.97;1.30;;;;;;;;;;6154380;23;20096;-86
2023/05/06 17:38:51;;;;;;;3.67;1.20;;;;;;;;;;6181314;23;20021;-87
2023/05/06 17:41:17;;;;;;;5.10;1.67;;;;;;;;;;6153966;23;20013;-87
2023/05/06 17:43:46;;;;;;;5.90;1.30;;;;;;;;;;6154401;23;20329;-87
2023/05/06 17:46:12;;;;;;;3.55;1.40;;;;;;;;;;6181003;23;20008;-86
2023/05/06 17:48:38;;;;;;;4.45;1.48;;;;;;;;;;6181205;23;20009;-86
2023/05/06 17:51:04;;;;;;;3.88;1.38;;;;;;;;;;6153518;23;20768;-86
2023/05/06 17:53:32;;;;;;;5.28;1.45;;;;;;;;;;6154715;23;20045;-86
2023/05/06 17:55:58;;;;;;;3.78;1.52;;;;;;;;;;6181198;23;20104;-86
2023/05/06 17:58:24;;;;;;;11.45;5.03;;;;;;;;;;6157733;23;20048;-86
2023/05/06 18:00:50;;;;;;;7.97;3.22;;;;;;;;;;6157746;23;20005;-86
2023/05/06 18:03:16;;;;;;;8.27;2.10;;;;;;;;;;6157872;23;20012;-85
2023/05/06 18:05:42;;;;;;;6.93;2.90;;;;;;;;;;6156677;23;20502;-84
2023/05/06 18:08:08;;;;;;;6.60;2.67;;;;;;;;;;6184178;23;20009;-85
2023/05/06 18:10:34;;;;;;;3.00;1.30;;;;;;;;;;6184272;23;20436;-84
2023/05/06 18:13:01;;;;;;;5.72;1.45;;;;;;;;;;6157556;23;20452;-85
2023/05/06 18:15:27;;;;;;;4.15;1.23;;;;;;;;;;6184737;23;20444;-85
2023/05/06 18:17:55;;;;;;;4.70;1.77;;;;;;;;;;6157773;23;20061;-87
2023/05/06 18:20:21;;;;;;;9.35;1.60;;;;;;;;;;6157710;23;20009;-87
2023/05/06 18:22:47;;;;;;;5.43;1.98;;;;;;;;;;6157838;23;20013;-88
2023/05/06 18:25:13;;;;;;;3.70;1.60;;;;;;;;;;6185621;23;20004;-82
2023/05/06 18:27:39;;;;;;;5.43;1.75;;;;;;;;;;6157486;23;20024;-83
2023/05/06 19:04:03;;;;;;;;;;;;;;;;;;;;;
2023/05/06 22:32:33;;;;;;;;;;;;;;;;;;;;;
2023/05/06 22:47:07;;;;;;;6.30;1.85;;;;;;;;;;6122846;23;20069;-83
2023/05/06 23:07:40;;;;;;;4.18;1.52;;;;;;;;;;6033108;23;20033;-83
